createdAt,value
2023-03-12T00:03:31.393Z,3.93
2023-03-12T00:08:34.716Z,3.55
2023-03-12T00:13:39.824Z,2.90
2023-03-12T00:18:43.868Z,3.20
2023-03-12T00:23:48.301Z,3.60
2023-03-12T00:28:53.746Z,3.17
2023-03-12T00:33:57.913Z,4.15
2023-03-12T00:39:02.638Z,2.63
2023-03-12T00:44:07.862Z,3.67
2023-03-12T00:49:11.761Z,3.55
2023-03-12T00:54:15.514Z,3.33
2023-03-12T00:59:20.423Z,3.13
2023-03-12T01:04:24.678Z,2.77
2023-03-12T01:09:28.470Z,3.53
2023-03-12T01:14:33.169Z,2.88
2023-03-12T01:19:36.802Z,2.35
2023-03-12T01:24:40.577Z,3.90
2023-03-12T01:29:45.184Z,2.72
2023-03-12T01:34:48.716Z,6.57
2023-03-12T01:39:51.939Z,2.88
2023-03-12T01:44:59.297Z,3.08
2023-03-12T01:50:04.935Z,2.60
2023-03-12T01:55:11.785Z,3.37
2023-03-12T02:00:21.662Z,2.85
2023-03-12T02:05:31.641Z,3.15
2023-03-12T02:10:35.305Z,3.35
2023-03-12T02:15:41.323Z,3.20
2023-03-12T02:20:53.956Z,5.03
2023-03-12T02:25:59.839Z,2.97
2023-03-12T02:31:07.299Z,2.80
2023-03-12T02:36:11.258Z,2.83
2023-03-12T02:41:20.278Z,3.22
2023-03-12T02:46:23.846Z,2.42
2023-03-12T02:51:27.448Z,2.53
2023-03-12T02:56:32.411Z,1.95
2023-03-12T03:01:36.407Z,2.50
2023-03-12T03:06:43.017Z,2.67
2023-03-12T03:11:48.198Z,2.38
2023-03-12T03:16:51.593Z,2.13
2023-03-12T03:21:58.808Z,2.85
2023-03-12T03:27:03.727Z,2.40
2023-03-12T03:32:07.751Z,1.55
2023-03-12T03:37:11.115Z,2.20
2023-03-12T03:42:16.571Z,2.17
2023-03-12T03:52:23.899Z,2.03
2023-03-12T03:57:29.394Z,1.80
2023-03-12T04:02:33.218Z,1.83
2023-03-12T04:07:37.167Z,1.83
2023-03-12T04:12:42.268Z,2.40
2023-03-12T04:17:45.827Z,2.50
2023-03-12T04:22:49.175Z,1.58
2023-03-12T04:27:54.908Z,2.28
2023-03-12T04:32:58.303Z,1.80
2023-03-12T04:38:03.352Z,2.08
2023-03-12T04:43:09.048Z,2.00
2023-03-12T04:48:13.942Z,1.90
2023-03-12T04:53:17.849Z,1.52
2023-03-12T04:58:24.239Z,2.15
2023-03-12T05:03:28.157Z,2.25
2023-03-12T05:08:33.312Z,2.25
2023-03-12T05:13:38.327Z,1.60
2023-03-12T05:18:42.278Z,2.13
2023-03-12T05:23:47.346Z,1.80
2023-03-12T05:28:53.334Z,2.08
2023-03-12T05:33:59.710Z,1.98
2023-03-12T05:39:03.542Z,2.58
2023-03-12T05:44:13.671Z,2.17
2023-03-12T05:49:19.136Z,1.90
2023-03-12T05:54:22.971Z,2.05
2023-03-12T05:59:29.663Z,2.03
2023-03-12T06:09:37.656Z,2.42
2023-03-12T06:14:43.181Z,1.98
2023-03-12T06:19:47.701Z,2.50
2023-03-12T06:24:51.078Z,1.83
2023-03-12T06:29:56.441Z,2.17
2023-03-12T06:35:00.815Z,1.90
2023-03-12T06:40:07.418Z,1.92
2023-03-12T06:45:12.838Z,1.45
2023-03-12T06:50:16.443Z,1.35
2023-03-12T06:55:19.740Z,1.92
2023-03-12T07:00:25.322Z,2.28
2023-03-12T07:10:33.495Z,1.90
2023-03-12T07:15:38.083Z,1.70
2023-03-12T07:20:43.318Z,1.60
2023-03-12T07:25:47.979Z,2.03
2023-03-12T07:30:52.750Z,1.60
2023-03-12T07:35:56.249Z,1.43
2023-03-12T07:41:00.945Z,1.80
2023-03-12T07:46:06.182Z,1.90
2023-03-12T07:51:09.575Z,2.43
2023-03-12T07:56:12.944Z,2.40
2023-03-12T08:01:18.315Z,2.17
2023-03-12T08:06:21.862Z,1.80
2023-03-12T08:11:25.102Z,1.85
2023-03-12T08:16:29.801Z,1.90
2023-03-12T08:21:33.129Z,1.53
2023-03-12T08:26:36.349Z,1.45
2023-03-12T08:31:53.810Z,1.90
2023-03-12T08:37:05.007Z,1.95
2023-03-12T08:42:08.824Z,1.98
2023-03-12T08:47:13.471Z,1.40
2023-03-12T08:52:17.162Z,1.57
2023-03-12T08:57:20.859Z,1.48
2023-03-12T09:02:26.047Z,1.83
2023-03-12T09:07:29.840Z,1.35
2023-03-12T09:12:33.765Z,1.58
2023-03-12T09:17:38.840Z,1.88
2023-03-12T09:22:43.156Z,1.35
2023-03-12T09:27:48.521Z,1.20
2023-03-12T09:32:53.681Z,1.58
2023-03-12T09:37:57.423Z,1.40
2023-03-12T09:43:04.242Z,1.27
2023-03-12T09:48:16.013Z,1.65
2023-03-12T09:53:28.871Z,1.42
2023-03-12T09:58:34.293Z,1.85
2023-03-12T10:03:56.147Z,1.50
2023-03-12T10:09:13.674Z,1.85
2023-03-12T10:14:26.842Z,1.85
2023-03-12T10:19:52.214Z,2.00
2023-03-12T10:25:06.647Z,1.88
2023-03-12T10:30:19.765Z,1.85
2023-03-12T10:35:27.385Z,1.88
2023-03-12T10:40:34.600Z,2.00
2023-03-12T10:45:43.717Z,2.10
2023-03-12T10:51:02.958Z,1.98
2023-03-12T10:56:08.877Z,2.90
2023-03-12T11:01:21.581Z,2.65
2023-03-12T11:06:28.663Z,2.75
2023-03-12T11:11:34.213Z,2.00
2023-03-12T11:16:37.530Z,2.50
2023-03-12T11:21:56.968Z,2.10
2023-03-12T11:27:06.916Z,2.17
2023-03-12T11:32:17.846Z,2.45
2023-03-12T11:37:32.942Z,2.08
2023-03-12T11:42:51.987Z,2.30
2023-03-12T11:48:15.737Z,2.28
2023-03-12T11:53:40.425Z,2.35
2023-03-12T11:59:11.994Z,2.65
2023-03-12T12:04:37.349Z,2.38
2023-03-12T12:09:50.476Z,2.25
2023-03-12T12:15:05.369Z,1.65
2023-03-12T12:20:26.847Z,2.10
2023-03-12T12:25:46.791Z,2.22
2023-03-12T12:31:06.221Z,2.33
2023-03-12T12:36:11.371Z,2.10
2023-03-12T12:41:19.341Z,1.88
2023-03-12T12:46:25.050Z,2.35
2023-03-12T12:51:31.366Z,1.70
2023-03-12T12:56:44.917Z,1.60
2023-03-12T13:01:48.849Z,1.63
2023-03-12T13:07:01.298Z,1.67
2023-03-12T13:12:22.888Z,2.60
2023-03-12T13:17:36.791Z,1.30
2023-03-12T13:23:06.913Z,1.25
2023-03-12T13:28:35.594Z,1.30
2023-03-12T13:33:44.984Z,1.52
2023-03-12T13:38:56.931Z,1.42
2023-03-12T13:44:02.315Z,1.40
2023-03-12T13:49:12.597Z,1.40
2023-03-12T13:54:19.894Z,1.52
2023-03-12T13:59:26.995Z,1.13
2023-03-12T14:04:41.400Z,1.38
2023-03-12T14:09:51.607Z,1.08
2023-03-12T14:15:08.489Z,1.70
2023-03-12T14:20:17.712Z,3.10
2023-03-12T14:25:29.517Z,2.38
2023-03-12T14:30:47.103Z,1.63
2023-03-12T14:35:56.880Z,1.70
2023-03-12T14:41:06.322Z,1.70
2023-03-12T14:46:18.372Z,1.88
2023-03-12T14:51:24.694Z,2.10
2023-03-12T14:56:30.888Z,1.67
2023-03-12T15:01:39.626Z,1.67
2023-03-12T15:06:46.919Z,1.95
2023-03-12T15:11:55.753Z,1.92
2023-03-12T15:17:01.511Z,2.25
2023-03-12T15:22:05.651Z,2.30
2023-03-12T15:27:24.447Z,2.30
2023-03-12T15:32:31.986Z,1.65
2023-03-12T15:37:38.352Z,2.47
2023-03-12T15:42:44.878Z,3.25
2023-03-12T15:47:50.880Z,1.83
2023-03-12T15:53:01.952Z,2.80
2023-03-12T15:58:24.992Z,2.30
2023-03-12T16:03:29.608Z,2.30
2023-03-12T16:08:39.366Z,2.50
2023-03-12T16:13:44.106Z,2.47
2023-03-12T16:18:48.740Z,2.55
2023-03-12T16:23:52.055Z,2.87
2023-03-12T16:28:55.369Z,2.80
2023-03-12T16:34:00.884Z,2.30
2023-03-12T16:44:09.396Z,2.83
2023-03-12T16:49:16.627Z,2.42
2023-03-12T16:54:20.035Z,2.10
2023-03-12T16:59:26.430Z,2.42
2023-03-12T17:04:31.246Z,3.20
2023-03-12T17:09:34.776Z,8.47
2023-03-12T17:14:38.469Z,5.10
2023-03-12T17:19:43.116Z,6.88
2023-03-12T17:24:47.215Z,5.57
2023-03-12T17:29:50.646Z,4.18
2023-03-12T17:34:57.678Z,3.47
2023-03-12T17:40:01.806Z,3.05
2023-03-12T17:45:07.718Z,3.28
2023-03-12T17:50:14.292Z,3.90
2023-03-12T17:55:18.042Z,2.42
2023-03-12T18:00:23.073Z,2.70
2023-03-12T18:05:28.226Z,2.47
2023-03-12T18:10:32.935Z,3.30
2023-03-12T18:15:36.266Z,2.30
2023-03-12T18:20:41.018Z,2.00
2023-03-12T18:25:45.566Z,1.60
2023-03-12T18:30:49.412Z,1.60
2023-03-12T18:35:54.727Z,1.48
2023-03-12T18:41:12.475Z,2.75
2023-03-12T18:46:15.875Z,2.08
2023-03-12T18:51:20.837Z,3.63
2023-03-12T18:56:24.188Z,2.87
2023-03-12T19:01:27.526Z,2.05
2023-03-12T19:06:47.852Z,2.20
2023-03-12T19:11:53.347Z,2.70
2023-03-12T19:16:56.973Z,2.67
2023-03-12T19:22:01.718Z,2.55
2023-03-12T19:27:05.232Z,4.03
2023-03-12T19:32:09.304Z,2.55
2023-03-12T19:37:13.990Z,3.15
2023-03-12T19:42:17.711Z,2.80
2023-03-12T19:47:22.114Z,2.95
2023-03-12T19:52:27.315Z,2.83
2023-03-12T19:57:30.608Z,2.25
2023-03-12T20:02:34.104Z,2.78
2023-03-12T20:07:39.629Z,2.72
2023-03-12T20:12:43.109Z,2.55
2023-03-12T20:17:46.319Z,1.83
2023-03-12T20:22:50.913Z,2.40
2023-03-12T20:27:54.186Z,2.20
2023-03-12T20:32:57.455Z,3.08
2023-03-12T20:38:02.493Z,2.67
2023-03-12T20:43:06.265Z,1.95
2023-03-12T20:48:09.523Z,3.30
2023-03-12T20:53:14.537Z,2.28
2023-03-12T20:58:18.170Z,2.15
2023-03-12T21:03:21.564Z,2.22
2023-03-12T21:08:27.302Z,1.80
2023-03-12T21:13:31.058Z,1.90
2023-03-12T21:18:34.413Z,1.60
2023-03-12T21:23:39.635Z,1.80
2023-03-12T21:28:42.978Z,1.55
2023-03-12T21:33:49.020Z,1.83
2023-03-12T21:38:53.909Z,1.33
2023-03-12T21:43:57.437Z,1.40
2023-03-12T21:49:01.377Z,2.05
2023-03-12T21:54:06.583Z,1.58
2023-03-12T21:59:10.659Z,3.78
2023-03-12T22:04:14.356Z,1.77
2023-03-12T22:09:19.706Z,2.00
2023-03-12T22:14:24.272Z,1.73
2023-03-12T22:19:27.708Z,1.98
2023-03-12T22:24:32.403Z,1.83
2023-03-12T22:29:36.132Z,2.03
2023-03-12T22:34:39.389Z,2.22
2023-03-12T22:39:45.906Z,1.75
2023-03-12T22:44:49.231Z,2.03
2023-03-12T22:49:53.157Z,2.33
2023-03-12T22:54:57.759Z,1.95
2023-03-12T23:00:01.158Z,2.60
2023-03-12T23:05:04.584Z,2.05
2023-03-12T23:10:10.767Z,2.47
2023-03-12T23:15:14.111Z,2.83
2023-03-12T23:20:17.575Z,2.63
2023-03-12T23:25:22.386Z,2.53
2023-03-12T23:30:25.688Z,2.73
2023-03-12T23:35:29.047Z,2.88
2023-03-12T23:40:33.830Z,2.78
2023-03-12T23:45:37.404Z,2.90
2023-03-12T23:50:41.244Z,2.92
2023-03-12T23:55:55.407Z,2.53
